Time;durP1;ratioP1;P1;durP2;ratioP2;P2;SDS_P1;SDS_P2;PMS_P1;PMS_P2;Temp;Humidity;BMP_temperature;BMP_pressure;BME280_temperature;BME280_humidity;BME280_pressure;Samples;Min_cycle;Max_cycle;Signal;HPM_P1;HPM_P2
2023/09/03 00:00:37;;;;;;;0.20;0.20;;;;;;;15.90;87.25;100030.88;5009489;28;20049;-71
2023/09/03 00:03:04;;;;;;;0.20;0.20;;;;;;;15.90;87.48;100036.38;5048882;28;20140;-71
2023/09/03 00:05:32;;;;;;;0.20;0.20;;;;;;;15.86;88.16;100024.31;5028890;28;20107;-71
2023/09/03 00:07:58;;;;;;;0.20;0.20;;;;;;;15.86;88.54;100027.06;5048309;28;20098;-74
2023/09/03 00:10:25;;;;;;;0.20;0.20;;;;;;;15.84;88.01;100021.88;5031281;28;20056;-72
2023/09/03 00:12:51;;;;;;;0.20;0.20;;;;;;;15.86;87.83;100025.16;5013065;28;20053;-73
2023/09/03 00:15:22;;;;;;;0.20;0.20;;;;;;;15.84;87.24;100027.41;5051002;28;20588;-71
2023/09/03 00:17:48;;;;;;;0.20;0.20;;;;;;;15.88;87.51;100033.94;5066239;28;20541;-71
2023/09/03 00:20:14;;;;;;;0.10;0.10;;;;;;;15.93;87.57;100038.56;5062714;28;20434;-72
2023/09/03 00:22:41;;;;;;;0.20;0.20;;;;;;;15.93;87.57;100037.72;5048832;28;20040;-71
2023/09/03 00:25:08;;;;;;;0.20;0.20;;;;;;;15.97;87.19;100045.09;5027166;28;20056;-72
2023/09/03 00:27:34;;;;;;;0.20;0.20;;;;;;;15.97;86.90;100047.84;5013854;28;20090;-72
2023/09/03 00:30:00;;;;;;;0.20;0.20;;;;;;;15.97;86.94;100047.84;5028680;28;20056;-72
2023/09/03 00:32:27;;;;;;;0.20;0.20;;;;;;;15.96;87.06;100042.63;5049419;28;20144;-71
2023/09/03 00:34:53;;;;;;;0.20;0.20;;;;;;;15.91;87.12;100034.47;5011788;28;20045;-72
2023/09/03 00:37:19;;;;;;;0.20;0.20;;;;;;;15.91;87.48;100049.06;5046541;28;20079;-72
2023/09/03 00:39:47;;;;;;;0.20;0.20;;;;;;;15.89;86.69;100037.50;5027617;28;20041;-71
2023/09/03 00:42:13;;;;;;;0.20;0.20;;;;;;;15.85;86.94;100040.06;5046635;28;20147;-71
2023/09/03 00:44:39;;;;;;;0.30;0.22;;;;;;;15.82;86.75;100046.16;5010624;28;20136;-71
2023/09/03 00:47:05;;;;;;;0.20;0.20;;;;;;;15.80;86.64;100042.09;5026712;28;20618;-73
2023/09/03 00:49:31;;;;;;;0.20;0.20;;;;;;;15.78;86.88;100044.34;5044112;28;20135;-72
2023/09/03 00:51:58;;;;;;;0.22;0.20;;;;;;;15.73;87.08;100036.97;5029574;28;20081;-71
2023/09/03 00:54:25;;;;;;;0.20;0.20;;;;;;;15.78;86.87;100047.09;5032370;28;20056;-71
2023/09/03 00:56:53;;;;;;;0.20;0.20;;;;;;;15.79;86.32;100052.28;5027171;28;20356;-70
2023/09/03 00:59:22;;;;;;;0.10;0.10;;;;;;;15.78;87.28;100056.16;5046322;28;20078;-73
2023/09/03 01:01:51;;;;;;;0.20;0.20;;;;;;;15.69;87.77;100056.03;5030352;28;20431;-72
2023/09/03 01:04:20;;;;;;;0.20;0.20;;;;;;;15.65;88.71;100059.72;5029542;28;20466;-71
2023/09/03 01:06:49;;;;;;;0.20;0.20;;;;;;;15.57;89.32;100051.03;5026989;28;20550;-72
2023/09/03 01:09:17;;;;;;;0.20;0.20;;;;;;;15.54;89.63;100048.06;5008444;28;20045;-71
2023/09/03 01:11:49;;;;;;;0.20;0.20;;;;;;;15.53;90.65;100047.25;5024650;28;20102;-71
2023/09/03 01:14:28;;;;;;;0.20;0.20;;;;;;;15.50;90.57;100055.28;5044516;28;20103;-72
2023/09/03 01:17:01;;;;;;;0.20;0.20;;;;;;;15.48;91.27;100052.81;5042259;28;20044;-70
2023/09/03 01:19:54;;;;;;;0.20;0.20;;;;;;;15.43;91.02;100042.72;5025558;28;20120;-71
2023/09/03 01:22:32;;;;;;;0.20;0.20;;;;;;;15.45;91.34;100047.94;5018649;28;20042;-72
2023/09/03 01:25:08;;;;;;;0.20;0.20;;;;;;;15.43;91.49;100048.22;5045016;28;20051;-74
2023/09/03 01:27:41;;;;;;;0.20;0.20;;;;;;;15.29;91.55;100028.06;5011282;28;20451;-72
2023/09/03 01:30:09;;;;;;;0.20;0.20;;;;;;;15.37;91.75;100037.59;5011513;28;20064;-71
2023/09/03 01:32:37;;;;;;;0.20;0.20;;;;;;;15.36;91.96;100053.31;5045742;28;20067;-72
2023/09/03 01:35:06;;;;;;;0.10;0.10;;;;;;;15.32;91.99;100049.53;5045301;28;20076;-71
2023/09/03 01:37:32;;;;;;;0.20;0.20;;;;;;;15.29;92.69;100047.34;5044831;28;20138;-71
2023/09/03 01:39:58;;;;;;;0.20;0.20;;;;;;;15.23;92.56;100056.81;5026096;28;20625;-71
2023/09/03 01:42:26;;;;;;;0.20;0.20;;;;;;;15.03;92.99;100043.06;5044743;28;20146;-71
2023/09/03 01:44:52;;;;;;;0.20;0.20;;;;;;;15.06;93.03;100046.34;5026261;28;20099;-70
2023/09/03 01:47:27;;;;;;;0.20;0.20;;;;;;;15.00;93.26;100051.13;5046847;28;20466;-72
2023/09/03 01:50:07;;;;;;;0.20;0.20;;;;;;;14.95;93.61;100065.78;5027385;28;20048;-71
2023/09/03 01:52:38;;;;;;;0.20;0.20;;;;;;;14.88;94.13;100054.31;5026098;28;20393;-70
2023/09/03 01:55:10;;;;;;;0.10;0.10;;;;;;;14.85;94.34;100063.16;5042197;28;20048;-71
2023/09/03 01:57:41;;;;;;;0.20;0.20;;;;;;;14.81;94.86;100062.13;5026678;28;20534;-72
2023/09/03 02:00:12;;;;;;;0.20;0.20;;;;;;;14.72;94.92;100065.53;5008959;28;20032;-71
2023/09/03 02:02:44;;;;;;;0.10;0.10;;;;;;;14.71;94.95;100071.31;5045193;28;20051;-70
2023/09/03 02:05:13;;;;;;;0.15;0.15;;;;;;;14.71;95.08;100074.06;5008748;28;20064;-72
2023/09/03 02:07:41;;;;;;;0.20;0.20;;;;;;;14.73;95.07;100071.88;5027572;28;20586;-73
2023/09/03 02:10:08;;;;;;;0.20;0.20;;;;;;;14.70;95.39;100078.75;5028157;28;20061;-71
2023/09/03 02:12:35;;;;;;;0.20;0.20;;;;;;;14.70;95.39;100076.00;5021416;28;20096;-72
2023/09/03 02:15:01;;;;;;;0.15;0.15;;;;;;;14.72;95.18;100067.47;4989657;28;20050;-71
2023/09/03 02:17:30;;;;;;;0.10;0.10;;;;;;;14.69;95.51;100070.81;5043909;28;20049;-71
2023/09/03 02:19:57;;;;;;;0.20;0.20;;;;;;;14.69;95.53;100070.81;5044374;28;20068;-70
2023/09/03 02:22:44;;;;;;;0.10;0.10;;;;;;;14.66;95.45;100071.38;5022098;28;20049;-72
2023/09/03 02:25:11;;;;;;;0.10;0.10;;;;;;;14.65;95.71;100072.50;5043592;28;20491;-72
2023/09/03 02:27:37;;;;;;;0.20;0.20;;;;;;;14.61;95.84;100077.78;5008324;28;20064;-71
2023/09/03 02:30:05;;;;;;;0.20;0.20;;;;;;;14.60;95.73;100073.41;5021911;28;20041;-72
2023/09/03 02:32:31;;;;;;;0.20;0.20;;;;;;;14.61;95.96;100077.78;5010686;28;20083;-72
2023/09/03 02:34:59;;;;;;;0.20;0.20;;;;;;;14.60;96.11;100076.16;5043822;28;20613;-72
2023/09/03 02:37:25;;;;;;;0.10;0.10;;;;;;;14.61;96.20;100081.34;4988911;28;20071;-71
2023/09/03 02:39:52;;;;;;;0.20;0.20;;;;;;;14.63;96.30;100078.31;5003711;28;20053;-72
2023/09/03 02:42:18;;;;;;;0.20;0.20;;;;;;;14.59;96.08;100074.47;5023074;28;20059;-72
2023/09/03 02:44:44;;;;;;;0.10;0.10;;;;;;;14.58;96.59;100078.34;5025711;28;20057;-71
2023/09/03 02:47:10;;;;;;;0.10;0.10;;;;;;;14.57;96.47;100077.56;5025947;28;20050;-71
2023/09/03 02:49:36;;;;;;;0.20;0.20;;;;;;;14.56;96.84;100081.41;5044362;28;20079;-72
2023/09/03 02:52:04;;;;;;;0.20;0.20;;;;;;;14.54;96.86;100078.16;5047404;28;20056;-71
2023/09/03 02:54:30;;;;;;;0.10;0.10;;;;;;;14.50;96.75;100073.53;5025479;28;20495;-70
2023/09/03 02:56:56;;;;;;;0.20;0.20;;;;;;;14.43;96.96;100066.44;5027222;28;20053;-69
2023/09/03 02:59:22;;;;;;;0.20;0.20;;;;;;;14.49;97.28;100071.88;4995961;28;20053;-70
2023/09/03 03:01:49;;;;;;;0.10;0.10;;;;;;;14.50;97.18;100071.56;5027900;28;20532;-71
2023/09/03 03:04:15;;;;;;;0.20;0.20;;;;;;;14.53;97.20;100078.44;5025865;28;20771;-70
2023/09/03 03:06:41;;;;;;;0.20;0.20;;;;;;;14.55;97.06;100070.69;5025785;28;20463;-72
2023/09/03 03:09:09;;;;;;;0.20;0.20;;;;;;;14.61;96.96;100077.78;5024251;28;20067;-72
2023/09/03 03:11:35;;;;;;;0.20;0.20;;;;;;;14.58;96.33;100081.94;5026373;28;20053;-70
2023/09/03 03:14:02;;;;;;;0.20;0.20;;;;;;;14.61;96.63;100083.28;5007986;28;20048;-72
2023/09/03 03:16:31;;;;;;;0.10;0.10;;;;;;;14.57;96.64;100076.72;5024533;28;20514;-70
2023/09/03 03:19:02;;;;;;;0.20;0.20;;;;;;;14.60;96.36;100085.22;5044798;28;20060;-71
2023/09/03 03:21:30;;;;;;;0.20;0.20;;;;;;;14.63;96.26;100083.81;5026151;28;20051;-71
2023/09/03 03:24:00;;;;;;;0.20;0.20;;;;;;;14.60;96.26;100081.66;5007752;28;20661;-69
2023/09/03 03:26:38;;;;;;;0.20;0.20;;;;;;;14.55;96.45;100077.03;5041441;28;20045;-72
2023/09/03 03:29:09;;;;;;;0.20;0.20;;;;;;;14.61;96.49;100083.28;5041982;28;20056;-72
2023/09/03 03:31:42;;;;;;;0.20;0.20;;;;;;;14.68;96.25;100094.75;5023951;28;20091;-69
2023/09/03 03:34:10;;;;;;;0.20;0.20;;;;;;;14.77;96.02;100094.13;5024085;28;20045;-71
2023/09/03 03:36:37;;;;;;;0.20;0.20;;;;;;;14.84;95.54;100089.88;4991867;28;20106;-71
2023/09/03 03:39:04;;;;;;;0.15;0.15;;;;;;;14.88;94.62;100090.94;5024317;28;20140;-71
2023/09/03 03:41:31;;;;;;;0.10;0.10;;;;;;;14.92;94.25;100082.91;5025221;28;20122;-71
2023/09/03 03:43:59;;;;;;;0.17;0.17;;;;;;;14.94;94.26;100086.19;5025262;28;20119;-71
2023/09/03 03:46:28;;;;;;;0.20;0.20;;;;;;;14.96;93.89;100088.59;5011040;28;20308;-71
2023/09/03 03:48:57;;;;;;;0.20;0.20;;;;;;;14.74;93.28;100049.53;5025992;28;20140;-71
2023/09/03 03:51:23;;;;;;;0.20;0.20;;;;;;;15.06;93.51;100084.88;5046116;28;20048;-71
2023/09/03 03:53:49;;;;;;;0.20;0.20;;;;;;;15.13;93.45;100096.38;5028106;28;20091;-71
2023/09/03 03:56:17;;;;;;;0.20;0.20;;;;;;;15.20;92.68;100085.78;5012684;28;20041;-71
2023/09/03 03:58:43;;;;;;;0.20;0.20;;;;;;;15.14;92.18;100071.28;5045642;28;20523;-71
2023/09/03 04:01:15;;;;;;;0.20;0.20;;;;;;;15.38;91.43;100095.16;5027969;28;20041;-70
2023/09/03 04:03:42;;;;;;;0.20;0.20;;;;;;;15.35;90.50;100089.41;5013944;28;20049;-71
2023/09/03 04:06:09;;;;;;;0.20;0.20;;;;;;;15.39;89.94;100098.72;5013757;28;20045;-71
2023/09/03 04:08:38;;;;;;;0.20;0.20;;;;;;;15.39;89.76;100096.78;5041628;28;20139;-72
2023/09/03 04:11:06;;;;;;;0.20;0.20;;;;;;;15.44;89.44;100098.63;5046410;28;20410;-72
2023/09/03 04:13:33;;;;;;;0.20;0.20;;;;;;;15.54;89.43;100098.47;5028203;28;20041;-70
2023/09/03 04:15:59;;;;;;;0.20;0.20;;;;;;;15.65;88.52;100098.28;5026520;28;20044;-71
2023/09/03 04:18:28;;;;;;;0.20;0.20;;;;;;;15.78;87.71;100104.97;5010139;28;20094;-74
2023/09/03 04:20:55;;;;;;;0.20;0.20;;;;;;;15.86;87.30;100096.81;4993784;28;20052;-72
2023/09/03 04:23:23;;;;;;;0.20;0.20;;;;;;;16.01;87.12;100101.25;5027155;28;20140;-72
2023/09/03 04:25:51;;;;;;;0.20;0.20;;;;;;;16.13;86.05;100102.72;5046597;28;20136;-70
2023/09/03 04:28:18;;;;;;;0.20;0.20;;;;;;;16.20;85.35;100102.31;5012434;28;20211;-71
2023/09/03 04:30:45;;;;;;;0.20;0.20;;;;;;;16.28;85.05;100104.34;5010607;28;20095;-72
2023/09/03 04:33:12;;;;;;;0.20;0.20;;;;;;;16.35;84.72;100110.28;5009838;28;20047;-71
2023/09/03 04:35:41;;;;;;;0.20;0.20;;;;;;;16.40;84.84;100098.34;5026704;28;20053;-72
2023/09/03 04:38:08;;;;;;;0.20;0.20;;;;;;;16.43;84.52;100094.97;5009853;28;20586;-72
2023/09/03 04:40:35;;;;;;;0.20;0.20;;;;;;;16.56;84.02;100109.88;5027895;28;20095;-71
2023/09/03 04:43:03;;;;;;;0.20;0.20;;;;;;;16.65;83.82;100105.28;5029001;28;20072;-72
2023/09/03 04:45:31;;;;;;;0.20;0.20;;;;;;;16.71;82.98;100100.47;5009454;28;20148;-71
2023/09/03 04:47:59;;;;;;;0.20;0.20;;;;;;;16.80;82.65;100106.06;5010036;28;20041;-72
2023/09/03 04:50:26;;;;;;;0.20;0.20;;;;;;;16.89;82.57;100106.97;5027111;28;20477;-71
2023/09/03 04:52:56;;;;;;;0.20;0.20;;;;;;;16.94;81.93;100101.34;5026397;28;20838;-72
2023/09/03 04:55:23;;;;;;;0.30;0.30;;;;;;;17.01;81.77;100114.72;5001236;28;20099;-70
2023/09/03 04:57:51;;;;;;;0.20;0.20;;;;;;;17.10;81.67;100101.81;5011212;28;20147;-71
2023/09/03 05:00:20;;;;;;;0.20;0.20;;;;;;;17.15;81.10;100107.22;5028157;28;20052;-72
2023/09/03 05:02:46;;;;;;;0.20;0.20;;;;;;;17.03;80.61;100098.69;5029266;28;20534;-71
2023/09/03 05:05:13;;;;;;;;;;;;;;;17.01;81.03;100100.91;5027514;28;20582;-72
2023/09/03 05:07:40;;;;;;;0.20;0.20;;;;;;;16.95;81.42;100097.44;5027306;28;19924;-70
2023/09/03 05:10:09;;;;;;;0.20;0.20;;;;;;;16.92;81.23;100108.28;5011073;28;20045;-70
2023/09/03 05:12:35;;;;;;;0.20;0.20;;;;;;;16.71;82.16;100084.69;5030056;28;20045;-71
2023/09/03 05:15:02;;;;;;;0.28;0.28;;;;;;;16.75;82.71;100104.22;5029239;28;20444;-73
2023/09/03 05:17:29;;;;;;;0.20;0.20;;;;;;;16.69;82.93;100100.75;5009559;28;20575;-71
2023/09/03 05:19:56;;;;;;;0.30;0.30;;;;;;;16.57;82.93;100101.28;5025361;28;20061;-71
2023/09/03 05:22:22;;;;;;;0.20;0.20;;;;;;;16.40;83.68;100104.66;5044931;28;20094;-72
2023/09/03 05:24:48;;;;;;;0.30;0.30;;;;;;;16.34;83.99;100105.06;5010800;28;20049;-71
2023/09/03 05:27:16;;;;;;;0.20;0.20;;;;;;;16.22;84.40;100097.31;5042246;28;20952;-72
2023/09/03 05:29:42;;;;;;;0.20;0.20;;;;;;;16.18;84.79;100104.56;5009386;28;20218;-72
2023/09/03 05:32:09;;;;;;;0.20;0.20;;;;;;;16.15;85.26;100101.28;5010920;28;20538;-71
2023/09/03 05:34:35;;;;;;;0.20;0.20;;;;;;;16.07;85.53;100092.88;5025875;28;20057;-71
2023/09/03 05:37:03;;;;;;;0.20;0.20;;;;;;;16.12;85.39;100101.09;5027129;28;20127;-70
2023/09/03 05:39:31;;;;;;;0.20;0.20;;;;;;;16.20;85.64;100107.84;5027241;28;20372;-71
2023/09/03 05:41:57;;;;;;;0.20;0.20;;;;;;;16.28;85.12;100105.19;5010117;28;20409;-72
2023/09/03 05:44:24;;;;;;;0.20;0.20;;;;;;;16.33;84.84;100103.44;5026649;28;20048;-72
2023/09/03 05:46:52;;;;;;;0.30;0.30;;;;;;;16.36;83.68;100094.53;5026540;28;20084;-71
2023/09/03 05:49:19;;;;;;;;;;;;;;;16.58;83.53;100105.69;5024621;28;20041;-71
2023/09/03 05:51:45;;;;;;;0.30;0.30;;;;;;;16.81;81.88;100105.75;5025108;28;20377;-70
2023/09/03 05:54:13;;;;;;;0.30;0.30;;;;;;;17.18;80.86;100091.19;5026776;28;20055;-71
2023/09/03 05:56:39;;;;;;;0.30;0.30;;;;;;;17.94;77.96;100108.91;5010734;28;20135;-71
2023/09/03 05:59:08;;;;;;;0.30;0.30;;;;;;;18.41;74.62;100095.47;4992033;28;20071;-72
2023/09/03 06:01:38;;;;;;;0.30;0.30;;;;;;;18.93;72.28;100093.94;5023800;28;20034;-72
2023/09/03 06:04:07;;;;;;;0.30;0.30;;;;;;;19.36;71.30;100105.41;4992061;28;20140;-71
2023/09/03 06:06:38;;;;;;;0.30;0.30;;;;;;;19.88;68.43;100103.69;5009008;28;20064;-73
2023/09/03 06:09:05;;;;;;;0.30;0.30;;;;;;;20.26;66.90;100105.72;5025177;28;20041;-71
2023/09/03 06:11:31;;;;;;;0.30;0.30;;;;;;;20.57;65.73;100099.03;5043359;28;20048;-71
2023/09/03 06:13:58;;;;;;;0.30;0.30;;;;;;;20.67;65.08;100097.84;5026959;28;20328;-71
2023/09/03 06:16:25;;;;;;;0.30;0.30;;;;;;;20.43;63.90;100092.91;5045430;28;20110;-71
2023/09/03 06:18:53;;;;;;;0.30;0.30;;;;;;;20.02;65.05;100096.00;5042906;28;20056;-72
2023/09/03 06:21:19;;;;;;;0.30;0.30;;;;;;;19.90;65.51;100084.75;5044288;28;20496;-71
2023/09/03 06:23:45;;;;;;;0.27;0.27;;;;;;;19.84;65.42;100084.13;5043718;28;20537;-73
2023/09/03 06:26:13;;;;;;;0.30;0.30;;;;;;;19.81;64.65;100080.06;5022102;28;20155;-70
2023/09/03 06:28:40;;;;;;;0.30;0.30;;;;;;;19.77;64.43;100076.31;5026047;28;20068;-71
2023/09/03 06:31:06;;;;;;;0.20;0.20;;;;;;;19.81;63.11;100076.44;5025313;28;20051;-72
2023/09/03 06:33:33;;;;;;;0.30;0.30;;;;;;;19.80;62.75;100083.97;5043731;28;20136;-72
2023/09/03 06:36:00;;;;;;;0.30;0.30;;;;;;;19.89;61.92;100077.56;5023530;28;20057;-71
2023/09/03 06:38:26;;;;;;;0.30;0.30;;;;;;;20.05;61.96;100075.13;5010913;28;20102;-73
2023/09/03 06:40:53;;;;;;;0.30;0.30;;;;;;;20.29;61.14;100076.47;5012450;28;20087;-71
2023/09/03 06:43:21;;;;;;;0.30;0.30;;;;;;;20.56;60.71;100083.53;5023631;28;20072;-72
2023/09/03 06:45:49;;;;;;;0.30;0.30;;;;;;;20.81;59.30;100090.09;5025274;28;20333;-72
2023/09/03 06:48:15;;;;;;;0.30;0.30;;;;;;;20.88;58.87;100085.94;5041803;28;20045;-70
2023/09/03 06:50:41;;;;;;;0.30;0.30;;;;;;;20.82;58.19;100097.28;5041184;28;20155;-72
2023/09/03 06:53:10;;;;;;;0.30;0.30;;;;;;;20.73;58.04;100085.38;5042641;28;20060;-72
2023/09/03 06:55:37;;;;;;;0.35;0.35;;;;;;;20.72;58.13;100097.63;4994255;28;20136;-72
2023/09/03 06:58:04;;;;;;;0.30;0.30;;;;;;;20.70;58.28;100097.16;5006204;28;20459;-72
2023/09/03 07:00:34;;;;;;;0.30;0.30;;;;;;;20.64;58.39;100092.94;5023979;28;20138;-71
2023/09/03 07:03:00;;;;;;;0.30;0.30;;;;;;;20.70;58.43;100086.03;5021932;28;20049;-71
2023/09/03 07:05:26;;;;;;;0.20;0.20;;;;;;;20.80;58.77;100084.84;5027044;28;20569;-72
2023/09/03 07:07:53;;;;;;;0.30;0.30;;;;;;;20.96;57.75;100077.56;5012315;28;20155;-72
2023/09/03 07:10:20;;;;;;;0.30;0.30;;;;;;;21.10;56.77;100085.63;5026311;28;20044;-73
2023/09/03 07:12:46;;;;;;;0.30;0.30;;;;;;;21.10;57.27;100088.41;5026371;28;20539;-73
2023/09/03 07:15:17;;;;;;;0.30;0.30;;;;;;;21.09;57.16;100088.75;5042969;28;20045;-72
2023/09/03 07:17:48;;;;;;;0.30;0.30;;;;;;;20.92;57.41;100087.72;5005974;28;20052;-71
2023/09/03 07:20:18;;;;;;;0.30;0.30;;;;;;;20.90;58.00;100089.19;5043472;28;20064;-71
2023/09/03 07:22:48;;;;;;;0.30;0.30;;;;;;;20.95;56.91;100091.81;5006290;28;20175;-72
2023/09/03 07:25:17;;;;;;;0.30;0.30;;;;;;;21.10;56.10;100087.59;5026085;28;20048;-73
2023/09/03 07:27:50;;;;;;;0.30;0.30;;;;;;;21.06;56.09;100095.78;5022724;28;20049;-72
2023/09/03 07:30:18;;;;;;;0.30;0.30;;;;;;;20.86;56.51;100096.59;5018744;28;20053;-73
2023/09/03 07:32:44;;;;;;;0.30;0.30;;;;;;;20.92;55.72;100086.94;5046070;28;20103;-70
2023/09/03 07:35:11;;;;;;;0.30;0.30;;;;;;;21.00;56.08;100086.03;4997623;28;20311;-72
2023/09/03 07:37:37;;;;;;;0.30;0.30;;;;;;;21.02;56.13;100091.25;5011459;28;20342;-72
2023/09/03 07:40:08;;;;;;;0.30;0.30;;;;;;;21.19;56.08;100087.50;4993386;28;20064;-71
2023/09/03 07:42:34;;;;;;;0.35;0.35;;;;;;;21.35;55.87;100088.50;5029870;28;20053;-73
2023/09/03 07:45:02;;;;;;;0.30;0.30;;;;;;;21.39;55.09;100092.25;5030512;28;20056;-72
2023/09/03 07:47:30;;;;;;;0.30;0.30;;;;;;;21.35;54.63;100088.50;5012495;28;20080;-73
2023/09/03 07:49:56;;;;;;;0.30;0.30;;;;;;;21.33;54.86;100095.59;5024523;28;20048;-71
2023/09/03 07:52:23;;;;;;;0.30;0.30;;;;;;;21.33;54.84;100092.81;5012226;28;20049;-70
2023/09/03 07:54:52;;;;;;;0.30;0.30;;;;;;;21.29;54.64;100100.19;5030007;28;20049;-71
2023/09/03 07:57:21;;;;;;;0.30;0.30;;;;;;;21.19;55.37;100101.41;4998456;28;20131;-72
2023/09/03 07:59:51;;;;;;;0.30;0.30;;;;;;;21.33;55.20;100107.50;5026619;28;20423;-72
2023/09/03 08:02:23;;;;;;;0.30;0.30;;;;;;;21.41;54.28;100103.03;5024642;28;20181;-72
2023/09/03 08:04:50;;;;;;;0.30;0.30;;;;;;;21.30;54.29;100097.06;5008666;28;20044;-72
2023/09/03 08:07:17;;;;;;;0.30;0.30;;;;;;;21.37;54.93;100099.31;5012248;28;20059;-71
2023/09/03 08:09:48;;;;;;;0.30;0.30;;;;;;;21.55;54.65;100102.75;5024341;28;20052;-73
2023/09/03 08:12:14;;;;;;;0.30;0.30;;;;;;;21.58;53.76;100110.41;5006342;28;20049;-71
2023/09/03 08:14:42;;;;;;;0.30;0.30;;;;;;;21.19;54.28;100107.81;5019998;28;20053;-72
2023/09/03 08:17:08;;;;;;;0.30;0.30;;;;;;;21.12;54.85;100113.06;5013296;28;20060;-72
2023/09/03 08:19:36;;;;;;;0.30;0.30;;;;;;;21.11;54.22;100115.06;5043318;28;20083;-71
2023/09/03 08:22:03;;;;;;;0.20;0.20;;;;;;;20.98;54.80;100116.13;5045977;28;20331;-71
2023/09/03 08:24:30;;;;;;;0.30;0.30;;;;;;;20.93;55.43;100119.91;5021544;28;20167;-71
2023/09/03 08:26:58;;;;;;;0.30;0.30;;;;;;;20.96;55.15;100107.31;5041091;28;20067;-71
2023/09/03 08:29:25;;;;;;;0.30;0.30;;;;;;;21.10;55.11;100109.81;5025123;28;20335;-72
2023/09/03 08:31:51;;;;;;;0.45;0.30;;;;;;;21.34;55.20;100114.69;5005466;28;20176;-72
2023/09/03 08:34:17;;;;;;;0.30;0.30;;;;;;;21.50;54.64;100111.28;5026064;28;20427;-71
2023/09/03 08:36:44;;;;;;;0.30;0.30;;;;;;;21.62;54.13;100099.38;5043351;28;20534;-71
2023/09/03 08:39:10;;;;;;;0.30;0.30;;;;;;;21.84;53.57;100120.47;5044583;28;20507;-71
2023/09/03 08:41:39;;;;;;;0.30;0.30;;;;;;;22.02;52.39;100114.72;5024810;28;20076;-71
2023/09/03 08:44:17;;;;;;;0.35;0.35;;;;;;;22.21;50.90;100117.75;5027970;28;20423;-71
2023/09/03 08:46:46;;;;;;;0.30;0.30;;;;;;;22.38;50.03;100113.94;5020412;28;20122;-71
2023/09/03 08:49:14;;;;;;;0.30;0.30;;;;;;;22.58;48.47;100116.19;5046078;28;20486;-71
2023/09/03 08:51:42;;;;;;;0.40;0.40;;;;;;;22.84;48.14;100121.38;5044180;28;20455;-72
2023/09/03 08:54:11;;;;;;;0.30;0.30;;;;;;;23.53;46.71;100115.03;5018638;28;20107;-72
2023/09/03 08:56:37;;;;;;;0.30;0.30;;;;;;;23.73;45.24;100107.63;5026785;28;20051;-72
2023/09/03 08:59:04;;;;;;;0.30;0.30;;;;;;;23.59;45.30;100122.00;5028979;28;20091;-71
2023/09/03 09:01:31;;;;;;;0.30;0.30;;;;;;;23.45;45.84;100122.41;5029675;28;20080;-71
2023/09/03 09:04:01;;;;;;;0.30;0.30;;;;;;;23.53;45.87;100117.84;5043437;28;20068;-71
2023/09/03 09:06:29;;;;;;;0.30;0.30;;;;;;;23.82;45.35;100129.00;4993395;28;20128;-73
2023/09/03 09:08:58;;;;;;;0.30;0.30;;;;;;;24.12;44.06;100112.66;5005017;28;20068;-70
2023/09/03 09:11:31;;;;;;;0.40;0.40;;;;;;;24.53;43.34;100120.03;5043360;28;20055;-71
2023/09/03 09:13:59;;;;;;;0.63;0.63;;;;;;;25.34;41.71;100116.66;5024665;28;20071;-70
2023/09/03 09:16:25;;;;;;;0.60;0.60;;;;;;;26.58;39.27;100113.31;5046363;28;20045;-73
2023/09/03 09:18:51;;;;;;;0.60;0.60;;;;;;;27.25;38.27;100117.47;5028086;28;20068;-71
2023/09/03 09:21:19;;;;;;;0.40;0.40;;;;;;;27.38;36.85;100108.81;5044533;28;20098;-72
2023/09/03 09:23:46;;;;;;;0.40;0.40;;;;;;;27.18;36.56;100123.00;5026218;28;20303;-72
2023/09/03 09:26:17;;;;;;;0.50;0.50;;;;;;;26.72;36.69;100113.53;5008214;28;20496;-73
2023/09/03 09:28:58;;;;;;;0.50;0.50;;;;;;;26.24;37.44;100116.78;5045591;28;20056;-72
2023/09/03 09:31:28;;;;;;;0.50;0.50;;;;;;;26.12;37.45;100112.16;5028119;28;20433;-72
2023/09/03 09:33:55;;;;;;;0.50;0.50;;;;;;;26.25;37.33;100123.19;4993747;28;20052;-72
2023/09/03 09:36:21;;;;;;;0.50;0.50;;;;;;;26.27;37.36;100118.81;5044050;28;20798;-72
2023/09/03 09:38:48;;;;;;;0.50;0.50;;;;;;;26.40;36.83;100129.84;5045552;28;20466;-73
2023/09/03 09:41:22;;;;;;;0.40;0.40;;;;;;;26.35;36.32;100128.16;5025157;28;20045;-72
2023/09/03 09:43:49;;;;;;;0.50;0.50;;;;;;;26.41;36.29;100123.03;5024322;28;20059;-73
2023/09/03 09:46:27;;;;;;;0.50;0.50;;;;;;;26.40;35.54;100122.25;5044363;28;20045;-71
2023/09/03 09:48:57;;;;;;;0.50;0.50;;;;;;;26.39;34.81;100109.44;5042633;28;20045;-71
2023/09/03 09:51:24;;;;;;;0.50;0.50;;;;;;;26.22;34.72;100110.75;5042534;28;20059;-71
2023/09/03 09:53:57;;;;;;;0.50;0.50;;;;;;;26.05;35.54;100112.84;5045528;28;20053;-72
2023/09/03 09:56:27;;;;;;;0.60;0.60;;;;;;;26.32;35.27;100107.31;5010307;28;20051;-72
2023/09/03 09:58:57;;;;;;;0.70;0.70;;;;;;;27.67;33.05;100112.75;5025006;28;20528;-73
2023/09/03 10:01:25;;;;;;;0.70;0.70;;;;;;;29.01;31.19;100113.88;5042118;28;20144;-74
2023/09/03 10:03:53;;;;;;;0.70;0.70;;;;;;;30.12;29.63;100117.44;5016951;28;20049;-71
2023/09/03 10:06:21;;;;;;;0.60;0.60;;;;;;;30.86;27.89;100104.13;5042861;28;20098;-73
2023/09/03 10:08:49;;;;;;;0.70;0.70;;;;;;;31.15;27.68;100109.69;5043454;28;20055;-73
2023/09/03 10:11:15;;;;;;;0.80;0.80;;;;;;;31.68;27.26;100113.47;5010093;28;20048;-72
2023/09/03 10:13:43;;;;;;;0.60;0.60;;;;;;;31.59;27.01;100107.47;5045955;28;20083;-72
2023/09/03 10:16:10;;;;;;;0.70;0.70;;;;;;;31.73;26.94;100107.38;5042956;28;20044;-70
2023/09/03 10:18:40;;;;;;;0.50;0.50;;;;;;;32.00;26.36;100095.50;5042766;28;20057;-71
2023/09/03 10:21:09;;;;;;;0.60;0.60;;;;;;;32.24;26.05;100098.56;5043010;28;20323;-71
2023/09/03 10:23:45;;;;;;;0.60;0.60;;;;;;;31.83;26.65;100103.69;5042938;28;20049;-69
2023/09/03 10:26:12;;;;;;;0.50;0.50;;;;;;;31.48;26.86;100096.25;5020941;28;20148;-72
2023/09/03 10:28:41;;;;;;;0.60;0.60;;;;;;;30.75;27.80;100092.84;5040894;28;20086;-71
2023/09/03 10:31:11;;;;;;;0.70;0.70;;;;;;;30.62;27.53;100104.59;5023123;28;20055;-70
2023/09/03 10:33:40;;;;;;;0.60;0.60;;;;;;;31.25;26.92;100104.00;5007452;28;20147;-71
2023/09/03 10:36:16;;;;;;;0.70;0.70;;;;;;;32.06;26.07;100102.34;5021348;28;20075;-71
2023/09/03 10:38:43;;;;;;;0.70;0.70;;;;;;;32.62;25.17;100103.47;5041167;28;20041;-72
2023/09/03 10:41:17;;;;;;;;;;;;;;;32.70;25.31;100107.03;5023985;28;20053;-73
2023/09/03 10:43:44;;;;;;;0.40;0.40;;;;;;;31.41;26.26;100105.56;5007670;28;19924;-72
2023/09/03 10:46:11;;;;;;;0.80;0.80;;;;;;;29.85;28.55;100105.72;5040720;28;20558;-73
2023/09/03 10:48:37;;;;;;;0.80;0.80;;;;;;;30.50;27.40;100117.03;5021627;28;20056;-71
2023/09/03 10:51:05;;;;;;;0.40;0.40;;;;;;;30.40;27.65;100117.88;5041492;28;20080;-72
2023/09/03 10:53:40;;;;;;;0.60;0.60;;;;;;;29.21;29.35;100115.56;5021102;28;20052;-71
2023/09/03 10:56:11;;;;;;;0.43;0.43;;;;;;;29.56;28.78;100112.13;5007944;28;20076;-71
2023/09/03 10:58:53;;;;;;;0.40;0.40;;;;;;;29.42;29.06;100109.25;5022051;28;20045;-73
2023/09/03 11:01:22;;;;;;;0.90;0.90;;;;;;;28.96;29.84;100110.66;5044266;28;20045;-72
2023/09/03 11:03:51;;;;;;;0.40;0.40;;;;;;;28.73;30.48;100109.69;5026306;28;20525;-72
2023/09/03 11:06:19;;;;;;;0.40;0.40;;;;;;;27.74;32.10;100117.66;5020932;28;20067;-72
2023/09/03 11:08:48;;;;;;;0.40;0.40;;;;;;;26.75;33.26;100106.34;5046763;28;20061;-72
2023/09/03 11:11:22;;;;;;;0.40;0.40;;;;;;;26.11;34.91;100107.72;5048682;28;20091;-72
2023/09/03 11:13:50;;;;;;;0.30;0.30;;;;;;;25.76;35.28;100109.50;5031197;28;20051;-71
2023/09/03 11:16:16;;;;;;;0.40;0.40;;;;;;;25.65;35.91;100110.50;5046545;28;20044;-73
2023/09/03 11:18:48;;;;;;;0.40;0.40;;;;;;;25.51;36.43;100117.44;5007360;28;20049;-71
2023/09/03 11:21:15;;;;;;;0.40;0.40;;;;;;;25.32;36.50;100113.44;5043274;28;20060;-73
2023/09/03 11:24:00;;;;;;;0.40;0.40;;;;;;;25.22;36.80;100113.22;5038336;28;20534;-74
2023/09/03 11:26:26;;;;;;;0.50;0.50;;;;;;;25.33;37.03;100120.66;5019995;28;20188;-73
2023/09/03 11:28:52;;;;;;;0.57;0.57;;;;;;;25.71;36.28;100125.78;5035257;28;20068;-73
2023/09/03 11:31:19;;;;;;;0.60;0.60;;;;;;;26.68;34.75;100118.25;5039522;28;20598;-74